sensor_id;sensor_type;location;lat;lon;timestamp;temperature;humidity
15819;DHT22;8010;53.986;12.106;2023-04-03T00:01:12;1.00;99.90
15819;DHT22;8010;53.986;12.106;2023-04-03T00:03:37;1.00;99.90
15819;DHT22;8010;53.986;12.106;2023-04-03T00:06:04;1.00;99.90
15819;DHT22;8010;53.986;12.106;2023-04-03T00:08:32;1.00;99.90
15819;DHT22;8010;53.986;12.106;2023-04-03T00:10:58;0.90;99.90
15819;DHT22;8010;53.986;12.106;2023-04-03T00:13:23;0.90;99.90
15819;DHT22;8010;53.986;12.106;2023-04-03T00:15:49;0.90;99.90
15819;DHT22;8010;53.986;12.106;2023-04-03T00:18:15;1.00;99.90
15819;DHT22;8010;53.986;12.106;2023-04-03T00:20:40;0.90;99.90
15819;DHT22;8010;53.986;12.106;2023-04-03T00:23:06;0.90;99.90
15819;DHT22;8010;53.986;12.106;2023-04-03T00:25:32;0.90;99.90
15819;DHT22;8010;53.986;12.106;2023-04-03T00:27:58;0.90;99.90
15819;DHT22;8010;53.986;12.106;2023-04-03T00:30:24;0.90;99.90
15819;DHT22;8010;53.986;12.106;2023-04-03T00:32:51;0.80;99.90
15819;DHT22;8010;53.986;12.106;2023-04-03T00:35:17;0.80;99.90
15819;DHT22;8010;53.986;12.106;2023-04-03T00:37:44;0.80;99.90
15819;DHT22;8010;53.986;12.106;2023-04-03T00:40:10;0.80;99.90
15819;DHT22;8010;53.986;12.106;2023-04-03T00:42:37;0.70;99.90
15819;DHT22;8010;53.986;12.106;2023-04-03T00:47:29;0.80;99.90
15819;DHT22;8010;53.986;12.106;2023-04-03T00:49:56;0.80;99.90
15819;DHT22;8010;53.986;12.106;2023-04-03T00:52:25;0.80;99.90
15819;DHT22;8010;53.986;12.106;2023-04-03T00:54:54;0.80;99.90
15819;DHT22;8010;53.986;12.106;2023-04-03T00:57:23;0.80;99.90
15819;DHT22;8010;53.986;12.106;2023-04-03T00:59:53;0.80;99.90
15819;DHT22;8010;53.986;12.106;2023-04-03T01:02:20;0.80;99.90
15819;DHT22;8010;53.986;12.106;2023-04-03T01:04:46;0.80;99.90
15819;DHT22;8010;53.986;12.106;2023-04-03T01:07:16;0.80;99.90
15819;DHT22;8010;53.986;12.106;2023-04-03T01:09:43;0.80;99.90
15819;DHT22;8010;53.986;12.106;2023-04-03T01:12:31;0.80;99.90
15819;DHT22;8010;53.986;12.106;2023-04-03T01:15:04;0.80;99.90
15819;DHT22;8010;53.986;12.106;2023-04-03T01:17:33;0.80;99.90
15819;DHT22;8010;53.986;12.106;2023-04-03T01:25:23;0.70;99.90
15819;DHT22;8010;53.986;12.106;2023-04-03T01:27:48;0.70;99.90
15819;DHT22;8010;53.986;12.106;2023-04-03T01:30:17;0.70;99.90
15819;DHT22;8010;53.986;12.106;2023-04-03T01:32:43;0.70;99.90
15819;DHT22;8010;53.986;12.106;2023-04-03T01:35:10;0.70;99.90
15819;DHT22;8010;53.986;12.106;2023-04-03T01:37:35;0.70;99.90
15819;DHT22;8010;53.986;12.106;2023-04-03T01:40:01;0.70;99.90
15819;DHT22;8010;53.986;12.106;2023-04-03T01:42:26;0.60;99.90
15819;DHT22;8010;53.986;12.106;2023-04-03T01:44:52;0.60;99.90
15819;DHT22;8010;53.986;12.106;2023-04-03T01:47:17;0.60;99.90
15819;DHT22;8010;53.986;12.106;2023-04-03T01:49:43;0.60;99.90
15819;DHT22;8010;53.986;12.106;2023-04-03T01:52:09;0.60;99.90
15819;DHT22;8010;53.986;12.106;2023-04-03T01:54:34;0.60;99.90
15819;DHT22;8010;53.986;12.106;2023-04-03T01:57:00;0.50;99.90
15819;DHT22;8010;53.986;12.106;2023-04-03T01:59:25;0.50;99.90
15819;DHT22;8010;53.986;12.106;2023-04-03T02:01:51;0.50;99.90
15819;DHT22;8010;53.986;12.106;2023-04-03T02:04:16;0.50;99.90
15819;DHT22;8010;53.986;12.106;2023-04-03T02:06:42;0.50;99.90
15819;DHT22;8010;53.986;12.106;2023-04-03T02:09:08;0.50;99.90
15819;DHT22;8010;53.986;12.106;2023-04-03T02:11:33;0.40;99.90
15819;DHT22;8010;53.986;12.106;2023-04-03T02:13:59;0.40;99.90
15819;DHT22;8010;53.986;12.106;2023-04-03T02:16:25;0.40;99.90
15819;DHT22;8010;53.986;12.106;2023-04-03T02:18:50;0.50;99.90
15819;DHT22;8010;53.986;12.106;2023-04-03T02:21:16;0.40;99.90
15819;DHT22;8010;53.986;12.106;2023-04-03T02:23:41;0.40;99.90
15819;DHT22;8010;53.986;12.106;2023-04-03T02:26:10;0.40;99.90
15819;DHT22;8010;53.986;12.106;2023-04-03T02:28:37;0.40;99.90
15819;DHT22;8010;53.986;12.106;2023-04-03T02:31:03;0.40;99.90
15819;DHT22;8010;53.986;12.106;2023-04-03T02:33:31;0.40;99.90
15819;DHT22;8010;53.986;12.106;2023-04-03T02:35:58;0.40;99.90
15819;DHT22;8010;53.986;12.106;2023-04-03T02:38:24;0.50;99.90
15819;DHT22;8010;53.986;12.106;2023-04-03T02:40:50;0.40;99.90
15819;DHT22;8010;53.986;12.106;2023-04-03T02:43:17;0.40;99.90
15819;DHT22;8010;53.986;12.106;2023-04-03T02:45:43;0.40;99.90
15819;DHT22;8010;53.986;12.106;2023-04-03T02:48:08;0.40;99.90
15819;DHT22;8010;53.986;12.106;2023-04-03T02:50:34;0.40;99.90
15819;DHT22;8010;53.986;12.106;2023-04-03T02:53:00;0.40;99.90
15819;DHT22;8010;53.986;12.106;2023-04-03T02:55:25;0.40;99.90
15819;DHT22;8010;53.986;12.106;2023-04-03T02:57:51;0.40;99.90
15819;DHT22;8010;53.986;12.106;2023-04-03T03:00:17;0.40;99.90
15819;DHT22;8010;53.986;12.106;2023-04-03T03:02:42;0.40;99.90
15819;DHT22;8010;53.986;12.106;2023-04-03T03:05:08;0.40;99.90
15819;DHT22;8010;53.986;12.106;2023-04-03T03:07:34;0.40;99.90
15819;DHT22;8010;53.986;12.106;2023-04-03T03:09:59;0.40;99.90
15819;DHT22;8010;53.986;12.106;2023-04-03T03:12:25;0.30;99.90
15819;DHT22;8010;53.986;12.106;2023-04-03T03:14:51;0.30;99.90
15819;DHT22;8010;53.986;12.106;2023-04-03T03:17:16;0.30;99.90
15819;DHT22;8010;53.986;12.106;2023-04-03T03:19:42;0.30;99.90
15819;DHT22;8010;53.986;12.106;2023-04-03T03:22:08;0.30;99.90
15819;DHT22;8010;53.986;12.106;2023-04-03T03:24:33;0.30;99.90
15819;DHT22;8010;53.986;12.106;2023-04-03T03:26:59;0.30;99.90
15819;DHT22;8010;53.986;12.106;2023-04-03T03:29:25;0.30;99.90
15819;DHT22;8010;53.986;12.106;2023-04-03T03:31:50;0.30;99.90
15819;DHT22;8010;53.986;12.106;2023-04-03T03:34:16;0.30;99.90
15819;DHT22;8010;53.986;12.106;2023-04-03T03:36:41;0.30;99.90
15819;DHT22;8010;53.986;12.106;2023-04-03T03:39:07;0.30;99.90
15819;DHT22;8010;53.986;12.106;2023-04-03T03:41:32;0.20;99.90
15819;DHT22;8010;53.986;12.106;2023-04-03T03:43:58;0.20;99.90
15819;DHT22;8010;53.986;12.106;2023-04-03T03:46:23;0.20;99.90
15819;DHT22;8010;53.986;12.106;2023-04-03T03:48:49;0.20;99.90
15819;DHT22;8010;53.986;12.106;2023-04-03T03:51:15;0.20;99.90
15819;DHT22;8010;53.986;12.106;2023-04-03T03:53:40;0.20;99.90
15819;DHT22;8010;53.986;12.106;2023-04-03T03:56:06;0.10;99.90
15819;DHT22;8010;53.986;12.106;2023-04-03T03:58:32;0.10;99.90
15819;DHT22;8010;53.986;12.106;2023-04-03T04:01:01;0.10;99.90
15819;DHT22;8010;53.986;12.106;2023-04-03T04:03:27;0.10;99.90
15819;DHT22;8010;53.986;12.106;2023-04-03T04:05:53;0.10;99.90
15819;DHT22;8010;53.986;12.106;2023-04-03T04:08:18;0.20;99.90
15819;DHT22;8010;53.986;12.106;2023-04-03T04:10:44;0.20;99.90
15819;DHT22;8010;53.986;12.106;2023-04-03T04:13:09;0.10;99.90
15819;DHT22;8010;53.986;12.106;2023-04-03T04:15:35;0.10;99.90
15819;DHT22;8010;53.986;12.106;2023-04-03T04:18:00;0.10;99.90
15819;DHT22;8010;53.986;12.106;2023-04-03T04:20:26;0.10;99.90
15819;DHT22;8010;53.986;12.106;2023-04-03T04:22:51;0.10;99.90
15819;DHT22;8010;53.986;12.106;2023-04-03T04:25:17;0.10;99.90
15819;DHT22;8010;53.986;12.106;2023-04-03T04:27:42;0.10;99.90
15819;DHT22;8010;53.986;12.106;2023-04-03T04:30:09;0.10;99.90
15819;DHT22;8010;53.986;12.106;2023-04-03T04:32:35;0.10;99.90
15819;DHT22;8010;53.986;12.106;2023-04-03T04:35:00;0.10;99.90
15819;DHT22;8010;53.986;12.106;2023-04-03T04:37:26;0.80;99.90
15819;DHT22;8010;53.986;12.106;2023-04-03T04:39:52;0.10;99.90
15819;DHT22;8010;53.986;12.106;2023-04-03T04:42:17;0.00;99.90
15819;DHT22;8010;53.986;12.106;2023-04-03T04:44:43;0.30;99.90
15819;DHT22;8010;53.986;12.106;2023-04-03T04:47:08;0.50;99.90
15819;DHT22;8010;53.986;12.106;2023-04-03T04:49:34;0.00;99.90
15819;DHT22;8010;53.986;12.106;2023-04-03T04:51:59;0.00;99.90
15819;DHT22;8010;53.986;12.106;2023-04-03T04:54:25;0.00;99.90
15819;DHT22;8010;53.986;12.106;2023-04-03T04:56:50;0.00;99.90
15819;DHT22;8010;53.986;12.106;2023-04-03T04:59:16;0.00;99.90
15819;DHT22;8010;53.986;12.106;2023-04-03T05:01:41;0.00;99.90
15819;DHT22;8010;53.986;12.106;2023-04-03T05:04:07;0.00;99.90
15819;DHT22;8010;53.986;12.106;2023-04-03T05:06:32;0.00;99.90
15819;DHT22;8010;53.986;12.106;2023-04-03T05:09:00;0.10;99.90
15819;DHT22;8010;53.986;12.106;2023-04-03T05:11:26;0.10;99.90
15819;DHT22;8010;53.986;12.106;2023-04-03T05:13:52;0.10;99.90
15819;DHT22;8010;53.986;12.106;2023-04-03T05:16:18;0.10;99.90
15819;DHT22;8010;53.986;12.106;2023-04-03T05:18:43;0.10;99.90
15819;DHT22;8010;53.986;12.106;2023-04-03T05:21:09;0.10;99.90
15819;DHT22;8010;53.986;12.106;2023-04-03T05:23:34;0.10;99.90
15819;DHT22;8010;53.986;12.106;2023-04-03T05:26:00;0.10;99.90
15819;DHT22;8010;53.986;12.106;2023-04-03T05:28:25;0.20;99.90
15819;DHT22;8010;53.986;12.106;2023-04-03T05:30:55;0.20;99.90
15819;DHT22;8010;53.986;12.106;2023-04-03T05:33:21;0.20;99.90
15819;DHT22;8010;53.986;12.106;2023-04-03T05:35:47;0.20;99.90
15819;DHT22;8010;53.986;12.106;2023-04-03T05:38:13;0.20;99.90
15819;DHT22;8010;53.986;12.106;2023-04-03T05:40:38;0.20;99.90
15819;DHT22;8010;53.986;12.106;2023-04-03T05:43:04;0.70;99.90
15819;DHT22;8010;53.986;12.106;2023-04-03T05:45:30;0.80;99.90
15819;DHT22;8010;53.986;12.106;2023-04-03T05:47:55;0.30;99.90
15819;DHT22;8010;53.986;12.106;2023-04-03T05:50:21;0.40;99.90
15819;DHT22;8010;53.986;12.106;2023-04-03T05:52:48;0.40;99.90
15819;DHT22;8010;53.986;12.106;2023-04-03T05:55:15;0.40;99.90
15819;DHT22;8010;53.986;12.106;2023-04-03T05:57:40;0.50;99.90
15819;DHT22;8010;53.986;12.106;2023-04-03T06:00:07;0.50;99.90
15819;DHT22;8010;53.986;12.106;2023-04-03T06:02:35;0.60;99.90
15819;DHT22;8010;53.986;12.106;2023-04-03T06:05:01;0.60;99.90
15819;DHT22;8010;53.986;12.106;2023-04-03T06:07:27;0.70;99.90
15819;DHT22;8010;53.986;12.106;2023-04-03T06:09:55;0.80;99.90
15819;DHT22;8010;53.986;12.106;2023-04-03T06:12:21;0.90;99.90
15819;DHT22;8010;53.986;12.106;2023-04-03T06:14:47;1.00;99.90
15819;DHT22;8010;53.986;12.106;2023-04-03T06:17:13;1.00;99.90
15819;DHT22;8010;53.986;12.106;2023-04-03T06:19:39;1.20;99.90
15819;DHT22;8010;53.986;12.106;2023-04-03T06:22:05;1.30;99.90
15819;DHT22;8010;53.986;12.106;2023-04-03T06:24:31;1.40;99.90
15819;DHT22;8010;53.986;12.106;2023-04-03T06:26:57;1.50;99.90
15819;DHT22;8010;53.986;12.106;2023-04-03T06:29:23;1.60;99.90
15819;DHT22;8010;53.986;12.106;2023-04-03T06:31:49;1.70;99.90
15819;DHT22;8010;53.986;12.106;2023-04-03T06:34:15;1.80;99.90
15819;DHT22;8010;53.986;12.106;2023-04-03T06:36:42;1.90;99.90
15819;DHT22;8010;53.986;12.106;2023-04-03T06:39:15;2.00;99.90
15819;DHT22;8010;53.986;12.106;2023-04-03T06:41:42;2.10;99.90
15819;DHT22;8010;53.986;12.106;2023-04-03T06:44:07;2.20;99.90
15819;DHT22;8010;53.986;12.106;2023-04-03T06:46:36;2.30;99.90
15819;DHT22;8010;53.986;12.106;2023-04-03T06:49:02;2.50;99.90
15819;DHT22;8010;53.986;12.106;2023-04-03T06:51:29;2.60;99.90
15819;DHT22;8010;53.986;12.106;2023-04-03T06:53:58;2.70;99.90
15819;DHT22;8010;53.986;12.106;2023-04-03T06:56:24;2.80;99.90
15819;DHT22;8010;53.986;12.106;2023-04-03T06:58:51;2.90;99.90
15819;DHT22;8010;53.986;12.106;2023-04-03T07:01:17;3.10;99.90
15819;DHT22;8010;53.986;12.106;2023-04-03T07:03:45;3.20;99.90
15819;DHT22;8010;53.986;12.106;2023-04-03T07:06:12;3.30;99.90
15819;DHT22;8010;53.986;12.106;2023-04-03T07:08:39;3.40;99.90
15819;DHT22;8010;53.986;12.106;2023-04-03T07:11:06;3.60;99.90
15819;DHT22;8010;53.986;12.106;2023-04-03T07:13:32;3.70;99.90
15819;DHT22;8010;53.986;12.106;2023-04-03T07:15:58;3.80;99.90
15819;DHT22;8010;53.986;12.106;2023-04-03T07:18:23;3.90;99.90
15819;DHT22;8010;53.986;12.106;2023-04-03T07:20:49;4.10;99.90
15819;DHT22;8010;53.986;12.106;2023-04-03T07:23:15;4.20;99.90
15819;DHT22;8010;53.986;12.106;2023-04-03T07:25:45;4.30;99.90
15819;DHT22;8010;53.986;12.106;2023-04-03T07:28:11;4.40;99.90
15819;DHT22;8010;53.986;12.106;2023-04-03T07:30:49;4.50;99.90
15819;DHT22;8010;53.986;12.106;2023-04-03T07:33:17;4.70;99.90
15819;DHT22;8010;53.986;12.106;2023-04-03T07:35:43;4.80;99.90
15819;DHT22;8010;53.986;12.106;2023-04-03T07:38:09;4.90;99.90
15819;DHT22;8010;53.986;12.106;2023-04-03T07:40:35;5.00;99.90
15819;DHT22;8010;53.986;12.106;2023-04-03T07:43:01;5.10;99.90
15819;DHT22;8010;53.986;12.106;2023-04-03T07:45:28;5.20;99.90
15819;DHT22;8010;53.986;12.106;2023-04-03T07:47:54;5.30;99.90
15819;DHT22;8010;53.986;12.106;2023-04-03T07:50:19;5.40;99.90
15819;DHT22;8010;53.986;12.106;2023-04-03T07:52:48;5.60;99.90
15819;DHT22;8010;53.986;12.106;2023-04-03T07:55:14;5.70;99.90
15819;DHT22;8010;53.986;12.106;2023-04-03T07:57:39;5.90;99.90
15819;DHT22;8010;53.986;12.106;2023-04-03T08:00:05;6.00;99.90
15819;DHT22;8010;53.986;12.106;2023-04-03T08:02:31;6.10;99.90
15819;DHT22;8010;53.986;12.106;2023-04-03T08:04:58;6.30;99.90
15819;DHT22;8010;53.986;12.106;2023-04-03T08:07:24;6.30;99.90
15819;DHT22;8010;53.986;12.106;2023-04-03T08:09:49;6.40;99.90
15819;DHT22;8010;53.986;12.106;2023-04-03T08:12:16;6.30;99.90
15819;DHT22;8010;53.986;12.106;2023-04-03T08:14:41;6.20;99.90
15819;DHT22;8010;53.986;12.106;2023-04-03T08:17:08;6.00;99.90
15819;DHT22;8010;53.986;12.106;2023-04-03T08:19:40;5.90;99.90
15819;DHT22;8010;53.986;12.106;2023-04-03T08:22:06;6.10;99.90
15819;DHT22;8010;53.986;12.106;2023-04-03T08:24:32;6.40;99.90
15819;DHT22;8010;53.986;12.106;2023-04-03T08:26:58;6.70;99.90
15819;DHT22;8010;53.986;12.106;2023-04-03T08:29:24;7.00;99.90
15819;DHT22;8010;53.986;12.106;2023-04-03T08:31:50;9.30;99.90
15819;DHT22;8010;53.986;12.106;2023-04-03T08:34:16;7.50;99.90
15819;DHT22;8010;53.986;12.106;2023-04-03T08:36:42;7.70;99.90
15819;DHT22;8010;53.986;12.106;2023-04-03T08:39:08;7.80;99.90
15819;DHT22;8010;53.986;12.106;2023-04-03T08:41:37;7.90;99.90
15819;DHT22;8010;53.986;12.106;2023-04-03T08:44:15;8.10;99.90
15819;DHT22;8010;53.986;12.106;2023-04-03T08:52:11;8.50;99.90
15819;DHT22;8010;53.986;12.106;2023-04-03T08:55:01;8.70;99.90
15819;DHT22;8010;53.986;12.106;2023-04-03T08:57:35;8.80;99.90
15819;DHT22;8010;53.986;12.106;2023-04-03T09:02:52;9.10;99.90
15819;DHT22;8010;53.986;12.106;2023-04-03T09:08:28;9.50;99.90
15819;DHT22;8010;53.986;12.106;2023-04-03T09:13:36;9.80;99.90
15819;DHT22;8010;53.986;12.106;2023-04-03T09:18:51;10.40;99.90
15819;DHT22;8010;53.986;12.106;2023-04-03T09:21:36;10.50;99.90
15819;DHT22;8010;53.986;12.106;2023-04-03T09:24:05;10.10;99.90
15819;DHT22;8010;53.986;12.106;2023-04-03T09:29:20;9.40;99.90
15819;DHT22;8010;53.986;12.106;2023-04-03T09:31:49;9.20;99.90
15819;DHT22;8010;53.986;12.106;2023-04-03T09:34:28;9.30;99.90
15819;DHT22;8010;53.986;12.106;2023-04-03T09:36:57;9.50;99.90
15819;DHT22;8010;53.986;12.106;2023-04-03T09:39:28;9.90;99.90
15819;DHT22;8010;53.986;12.106;2023-04-03T09:42:21;10.10;99.90
15819;DHT22;8010;53.986;12.106;2023-04-03T09:44:59;10.40;99.90
15819;DHT22;8010;53.986;12.106;2023-04-03T09:47:30;10.10;99.90
15819;DHT22;8010;53.986;12.106;2023-04-03T09:52:43;9.00;99.90
15819;DHT22;8010;53.986;12.106;2023-04-03T09:55:16;8.50;99.90
15819;DHT22;8010;53.986;12.106;2023-04-03T09:57:46;8.40;99.90
15819;DHT22;8010;53.986;12.106;2023-04-03T10:00:26;8.40;99.90
15819;DHT22;8010;53.986;12.106;2023-04-03T10:02:57;8.10;99.90
15819;DHT22;8010;53.986;12.106;2023-04-03T10:05:34;7.90;99.90
15819;DHT22;8010;53.986;12.106;2023-04-03T10:10:39;7.60;99.90
15819;DHT22;8010;53.986;12.106;2023-04-03T10:13:16;7.80;99.90
15819;DHT22;8010;53.986;12.106;2023-04-03T10:16:07;7.90;99.90
15819;DHT22;8010;53.986;12.106;2023-04-03T10:21:45;9.20;99.90
15819;DHT22;8010;53.986;12.106;2023-04-03T10:24:19;9.70;99.90
15819;DHT22;8010;53.986;12.106;2023-04-03T10:27:12;10.10;99.90
15819;DHT22;8010;53.986;12.106;2023-04-03T10:32:51;10.90;99.90
15819;DHT22;8010;53.986;12.106;2023-04-03T10:35:59;11.10;99.90
15819;DHT22;8010;53.986;12.106;2023-04-03T10:38:48;11.30;99.90
15819;DHT22;8010;53.986;12.106;2023-04-03T10:46:59;11.40;99.90
15819;DHT22;8010;53.986;12.106;2023-04-03T10:49:37;11.70;99.90
15819;DHT22;8010;53.986;12.106;2023-04-03T10:55:00;12.00;99.90
15819;DHT22;8010;53.986;12.106;2023-04-03T10:57:28;12.20;99.90
15819;DHT22;8010;53.986;12.106;2023-04-03T11:00:01;12.30;99.90
15819;DHT22;8010;53.986;12.106;2023-04-03T11:02:30;12.40;99.90
15819;DHT22;8010;53.986;12.106;2023-04-03T11:05:02;12.90;99.90
15819;DHT22;8010;53.986;12.106;2023-04-03T11:07:36;12.50;99.90
15819;DHT22;8010;53.986;12.106;2023-04-03T11:10:09;12.60;99.90
15819;DHT22;8010;53.986;12.106;2023-04-03T11:12:48;12.70;99.90
15819;DHT22;8010;53.986;12.106;2023-04-03T11:15:18;12.80;99.90
15819;DHT22;8010;53.986;12.106;2023-04-03T11:17:55;12.70;99.90
15819;DHT22;8010;53.986;12.106;2023-04-03T11:20:31;12.40;99.90
15819;DHT22;8010;53.986;12.106;2023-04-03T11:23:20;12.60;99.90
15819;DHT22;8010;53.986;12.106;2023-04-03T11:25:50;12.80;99.90
15819;DHT22;8010;53.986;12.106;2023-04-03T11:28:17;12.90;99.90
15819;DHT22;8010;53.986;12.106;2023-04-03T11:36:56;12.90;99.90
15819;DHT22;8010;53.986;12.106;2023-04-03T11:39:28;13.10;99.90
15819;DHT22;8010;53.986;12.106;2023-04-03T11:41:54;13.20;99.90
15819;DHT22;8010;53.986;12.106;2023-04-03T11:44:36;13.40;99.90
15819;DHT22;8010;53.986;12.106;2023-04-03T11:47:03;13.70;99.90
15819;DHT22;8010;53.986;12.106;2023-04-03T11:49:51;13.00;99.90
15819;DHT22;8010;53.986;12.106;2023-04-03T12:13:35;14.30;99.90
15819;DHT22;8010;53.986;12.106;2023-04-03T12:16:02;13.80;99.90
15819;DHT22;8010;53.986;12.106;2023-04-03T12:18:41;15.10;99.90
15819;DHT22;8010;53.986;12.106;2023-04-03T12:21:12;12.60;99.90
15819;DHT22;8010;53.986;12.106;2023-04-03T12:27:01;13.10;99.90
15819;DHT22;8010;53.986;12.106;2023-04-03T12:34:42;14.20;99.90
15819;DHT22;8010;53.986;12.106;2023-04-03T12:38:10;14.20;99.90
15819;DHT22;8010;53.986;12.106;2023-04-03T12:46:13;14.50;99.90
15819;DHT22;8010;53.986;12.106;2023-04-03T12:51:34;14.30;99.90
15819;DHT22;8010;53.986;12.106;2023-04-03T12:54:04;14.10;99.90
15819;DHT22;8010;53.986;12.106;2023-04-03T12:56:38;14.00;99.90
15819;DHT22;8010;53.986;12.106;2023-04-03T12:59:16;14.20;99.90
15819;DHT22;8010;53.986;12.106;2023-04-03T13:01:43;14.20;99.90
15819;DHT22;8010;53.986;12.106;2023-04-03T13:04:10;14.40;99.90
15819;DHT22;8010;53.986;12.106;2023-04-03T13:06:40;14.50;99.90
15819;DHT22;8010;53.986;12.106;2023-04-03T13:09:20;14.20;99.90
15819;DHT22;8010;53.986;12.106;2023-04-03T13:14:37;14.00;99.90
15819;DHT22;8010;53.986;12.106;2023-04-03T13:19:37;14.30;99.90
15819;DHT22;8010;53.986;12.106;2023-04-03T13:22:06;14.60;99.90
15819;DHT22;8010;53.986;12.106;2023-04-03T13:24:36;14.50;99.90
15819;DHT22;8010;53.986;12.106;2023-04-03T13:27:02;14.70;99.90
15819;DHT22;8010;53.986;12.106;2023-04-03T13:29:35;14.60;99.90
15819;DHT22;8010;53.986;12.106;2023-04-03T13:32:02;14.60;99.90
15819;DHT22;8010;53.986;12.106;2023-04-03T13:34:36;14.70;99.90
15819;DHT22;8010;53.986;12.106;2023-04-03T13:37:03;14.70;99.90
15819;DHT22;8010;53.986;12.106;2023-04-03T13:39:35;15.00;99.90
15819;DHT22;8010;53.986;12.106;2023-04-03T13:42:21;15.00;99.90
15819;DHT22;8010;53.986;12.106;2023-04-03T13:44:48;14.80;99.90
15819;DHT22;8010;53.986;12.106;2023-04-03T13:47:18;14.60;99.90
15819;DHT22;8010;53.986;12.106;2023-04-03T13:49:57;14.70;99.90
15819;DHT22;8010;53.986;12.106;2023-04-03T13:52:30;14.90;99.90
15819;DHT22;8010;53.986;12.106;2023-04-03T13:55:02;15.10;99.90
15819;DHT22;8010;53.986;12.106;2023-04-03T13:57:28;15.40;99.90
15819;DHT22;8010;53.986;12.106;2023-04-03T13:59:54;15.30;99.10
15819;DHT22;8010;53.986;12.106;2023-04-03T14:02:29;15.10;98.70
15819;DHT22;8010;53.986;12.106;2023-04-03T14:04:58;15.10;99.70
15819;DHT22;8010;53.986;12.106;2023-04-03T14:07:27;15.10;99.90
15819;DHT22;8010;53.986;12.106;2023-04-03T14:09:53;15.20;99.90
15819;DHT22;8010;53.986;12.106;2023-04-03T14:12:31;15.30;99.30
15819;DHT22;8010;53.986;12.106;2023-04-03T14:15:00;15.30;99.90
15819;DHT22;8010;53.986;12.106;2023-04-03T14:17:26;15.40;99.90
15819;DHT22;8010;53.986;12.106;2023-04-03T14:19:54;15.60;99.90
15819;DHT22;8010;53.986;12.106;2023-04-03T14:22:26;15.50;99.90
15819;DHT22;8010;53.986;12.106;2023-04-03T14:24:53;15.30;98.90
15819;DHT22;8010;53.986;12.106;2023-04-03T14:27:34;15.40;99.90
15819;DHT22;8010;53.986;12.106;2023-04-03T14:30:01;15.40;99.90
15819;DHT22;8010;53.986;12.106;2023-04-03T14:32:28;15.20;99.90
15819;DHT22;8010;53.986;12.106;2023-04-03T14:34:54;15.30;99.90
15819;DHT22;8010;53.986;12.106;2023-04-03T14:37:25;15.30;99.90
15819;DHT22;8010;53.986;12.106;2023-04-03T14:39:54;15.50;99.90
15819;DHT22;8010;53.986;12.106;2023-04-03T14:42:27;15.40;99.90
15819;DHT22;8010;53.986;12.106;2023-04-03T14:44:53;15.50;99.50
15819;DHT22;8010;53.986;12.106;2023-04-03T14:47:22;15.40;99.00
15819;DHT22;8010;53.986;12.106;2023-04-03T14:49:48;15.30;99.30
15819;DHT22;8010;53.986;12.106;2023-04-03T14:52:27;15.40;99.90
15819;DHT22;8010;53.986;12.106;2023-04-03T14:54:53;15.50;99.90
15819;DHT22;8010;53.986;12.106;2023-04-03T14:57:19;15.40;99.60
15819;DHT22;8010;53.986;12.106;2023-04-03T14:59:47;15.10;99.30
15819;DHT22;8010;53.986;12.106;2023-04-03T15:02:37;14.90;99.90
15819;DHT22;8010;53.986;12.106;2023-04-03T15:05:05;14.70;99.90
15819;DHT22;8010;53.986;12.106;2023-04-03T15:07:39;14.60;99.90
15819;DHT22;8010;53.986;12.106;2023-04-03T15:12:41;14.30;99.90
15819;DHT22;8010;53.986;12.106;2023-04-03T15:15:08;14.00;99.90
15819;DHT22;8010;53.986;12.106;2023-04-03T15:17:34;14.20;99.90
15819;DHT22;8010;53.986;12.106;2023-04-03T15:20:03;14.50;99.90
15819;DHT22;8010;53.986;12.106;2023-04-03T15:22:29;14.50;99.90
15819;DHT22;8010;53.986;12.106;2023-04-03T15:24:54;14.60;99.90
15819;DHT22;8010;53.986;12.106;2023-04-03T15:27:20;14.60;99.90
15819;DHT22;8010;53.986;12.106;2023-04-03T15:29:46;14.70;99.90
15819;DHT22;8010;53.986;12.106;2023-04-03T15:32:12;14.70;99.90
15819;DHT22;8010;53.986;12.106;2023-04-03T15:34:39;14.70;99.90
15819;DHT22;8010;53.986;12.106;2023-04-03T15:37:05;14.50;99.90
15819;DHT22;8010;53.986;12.106;2023-04-03T15:39:31;14.30;99.90
15819;DHT22;8010;53.986;12.106;2023-04-03T15:41:57;14.10;99.90
15819;DHT22;8010;53.986;12.106;2023-04-03T15:44:30;14.00;99.90
15819;DHT22;8010;53.986;12.106;2023-04-03T15:46:55;14.00;99.90
15819;DHT22;8010;53.986;12.106;2023-04-03T15:49:21;13.80;99.90
15819;DHT22;8010;53.986;12.106;2023-04-03T15:51:47;13.70;99.90
15819;DHT22;8010;53.986;12.106;2023-04-03T15:54:13;13.70;99.90
15819;DHT22;8010;53.986;12.106;2023-04-03T15:56:39;13.50;99.90
15819;DHT22;8010;53.986;12.106;2023-04-03T15:59:05;13.30;99.90
15819;DHT22;8010;53.986;12.106;2023-04-03T16:01:31;13.10;99.90
15819;DHT22;8010;53.986;12.106;2023-04-03T16:03:57;12.90;99.90
15819;DHT22;8010;53.986;12.106;2023-04-03T16:06:24;12.60;99.90
15819;DHT22;8010;53.986;12.106;2023-04-03T16:08:51;12.30;99.90
15819;DHT22;8010;53.986;12.106;2023-04-03T16:11:19;12.10;99.90
15819;DHT22;8010;53.986;12.106;2023-04-03T16:13:45;11.90;99.90
15819;DHT22;8010;53.986;12.106;2023-04-03T16:16:10;11.60;99.90
15819;DHT22;8010;53.986;12.106;2023-04-03T16:18:36;11.40;99.90
15819;DHT22;8010;53.986;12.106;2023-04-03T16:21:03;11.30;99.90
15819;DHT22;8010;53.986;12.106;2023-04-03T16:23:29;11.10;99.90
15819;DHT22;8010;53.986;12.106;2023-04-03T16:25:57;10.80;99.90
15819;DHT22;8010;53.986;12.106;2023-04-03T16:28:43;10.60;99.90
15819;DHT22;8010;53.986;12.106;2023-04-03T16:31:09;10.40;99.90
15819;DHT22;8010;53.986;12.106;2023-04-03T16:33:35;10.20;99.90
15819;DHT22;8010;53.986;12.106;2023-04-03T16:36:21;10.10;99.90
15819;DHT22;8010;53.986;12.106;2023-04-03T16:38:46;9.90;99.90
15819;DHT22;8010;53.986;12.106;2023-04-03T16:41:15;9.80;99.90
15819;DHT22;8010;53.986;12.106;2023-04-03T16:43:40;9.60;99.90
15819;DHT22;8010;53.986;12.106;2023-04-03T16:46:06;9.40;99.90
15819;DHT22;8010;53.986;12.106;2023-04-03T16:48:32;9.20;99.90
15819;DHT22;8010;53.986;12.106;2023-04-03T16:50:57;8.90;99.90
15819;DHT22;8010;53.986;12.106;2023-04-03T16:53:24;8.80;99.90
15819;DHT22;8010;53.986;12.106;2023-04-03T16:55:50;8.70;99.90
15819;DHT22;8010;53.986;12.106;2023-04-03T16:58:16;8.50;99.90
15819;DHT22;8010;53.986;12.106;2023-04-03T17:00:42;8.40;99.90
15819;DHT22;8010;53.986;12.106;2023-04-03T17:03:08;8.30;99.90
15819;DHT22;8010;53.986;12.106;2023-04-03T17:05:34;8.20;99.90
15819;DHT22;8010;53.986;12.106;2023-04-03T17:08:00;8.10;99.90
15819;DHT22;8010;53.986;12.106;2023-04-03T17:10:26;8.00;99.90
15819;DHT22;8010;53.986;12.106;2023-04-03T17:12:51;7.80;99.90
15819;DHT22;8010;53.986;12.106;2023-04-03T17:15:17;7.70;99.90
15819;DHT22;8010;53.986;12.106;2023-04-03T17:17:44;7.60;99.90
15819;DHT22;8010;53.986;12.106;2023-04-03T17:20:10;7.50;99.90
15819;DHT22;8010;53.986;12.106;2023-04-03T17:22:35;7.40;99.90
15819;DHT22;8010;53.986;12.106;2023-04-03T17:25:02;7.30;99.90
15819;DHT22;8010;53.986;12.106;2023-04-03T17:27:27;7.10;99.90